Time;durP1;ratioP1;P1;durP2;ratioP2;P2;SDS_P1;SDS_P2;PMS_P1;PMS_P2;Temp;Humidity;BMP_temperature;BMP_pressure;BME280_temperature;BME280_humidity;BME280_pressure;Samples;Min_cycle;Max_cycle;Signal;HPM_P1;HPM_P2
2023/06/06 00:00:43;;;;;;;10.18;5.97;;;16.80;79.90;;;;;;5096148;28;20071;-77
2023/06/06 00:03:10;;;;;;;9.23;5.88;;;16.70;80.30;;;;;;5095598;28;20111;-77
2023/06/06 00:05:36;;;;;;;9.55;6.90;;;16.70;80.20;;;;;;5096130;28;20051;-77
2023/06/06 00:08:02;;;;;;;11.02;6.47;;;16.70;80.30;;;;;;5077601;28;20059;-77
2023/06/06 00:10:27;;;;;;;10.73;6.63;;;16.70;80.90;;;;;;5095899;28;20107;-77
2023/06/06 00:12:53;;;;;;;7.70;6.38;;;16.70;80.40;;;;;;5095496;28;20031;-77
2023/06/06 00:15:19;;;;;;;7.88;5.90;;;16.70;80.30;;;;;;5095808;28;20032;-77
2023/06/06 00:17:48;;;;;;;9.00;6.57;;;16.60;80.50;;;;;;5095534;28;20076;-78
2023/06/06 00:20:14;;;;;;;9.95;6.50;;;16.60;80.60;;;;;;5095819;28;20028;-79
2023/06/06 00:22:40;;;;;;;13.00;6.90;;;16.50;80.50;;;;;;5095258;28;20091;-78
2023/06/06 00:25:07;;;;;;;9.77;6.53;;;16.40;80.90;;;;;;5094456;28;20029;-78
2023/06/06 00:27:34;;;;;;;11.63;6.80;;;16.40;81.00;;;;;;5095555;28;20121;-78
2023/06/06 00:29:59;;;;;;;11.30;6.35;;;16.40;81.10;;;;;;5095643;28;20085;-78
2023/06/06 00:32:26;;;;;;;8.68;6.63;;;16.30;81.30;;;;;;5095277;28;20431;-78
2023/06/06 00:34:53;;;;;;;8.65;5.85;;;16.30;81.30;;;;;;5095656;28;20085;-78
2023/06/06 00:37:19;;;;;;;8.07;5.82;;;16.20;81.50;;;;;;5095538;28;20043;-78
2023/06/06 00:39:44;;;;;;;11.38;6.90;;;16.40;81.30;;;;;;5095026;28;20102;-78
2023/06/06 00:42:10;;;;;;;9.50;6.47;;;16.40;81.10;;;;;;5095058;28;20024;-78
2023/06/06 00:44:36;;;;;;;12.10;7.13;;;16.10;81.50;;;;;;5095423;28;20457;-78
2023/06/06 00:47:03;;;;;;;8.88;6.22;;;16.10;81.60;;;;;;5094866;28;20036;-78
2023/06/06 00:49:28;;;;;;;8.95;5.80;;;16.10;81.90;;;;;;5095151;28;20075;-78
2023/06/06 00:51:55;;;;;;;10.80;6.53;;;16.10;82.50;;;;;;5094829;28;20071;-78
2023/06/06 00:54:21;;;;;;;10.65;6.45;;;16.10;82.00;;;;;;5076463;28;20020;-78
2023/06/06 00:56:49;;;;;;;10.80;6.63;;;16.10;81.90;;;;;;5076531;28;20032;-78
2023/06/06 00:59:16;;;;;;;7.82;6.20;;;16.00;82.10;;;;;;5094923;28;20119;-79
2023/06/06 01:01:43;;;;;;;8.80;6.70;;;15.90;82.30;;;;;;5094869;28;20048;-78
2023/06/06 01:04:10;;;;;;;10.80;6.32;;;16.00;82.40;;;;;;5093652;28;20070;-79
2023/06/06 01:06:37;;;;;;;9.07;5.85;;;16.10;82.00;;;;;;5094798;28;20082;-78
2023/06/06 01:09:07;;;;;;;9.18;5.32;;;16.20;81.90;;;;;;5094747;28;20091;-78
2023/06/06 01:12:02;;;;;;;10.13;6.05;;;16.30;81.40;;;;;;5094303;28;20384;-78
2023/06/06 01:15:06;;;;;;;8.02;5.75;;;16.40;80.80;;;;;;5094798;28;20027;-78
2023/06/06 01:17:33;;;;;;;7.15;6.03;;;16.40;80.60;;;;;;5077278;28;20036;-78
2023/06/06 01:20:00;;;;;;;7.88;5.85;;;16.40;80.70;;;;;;5094540;28;20024;-77
2023/06/06 01:22:28;;;;;;;7.75;5.80;;;16.40;80.70;;;;;;5094559;28;20056;-77
2023/06/06 01:24:55;;;;;;;8.88;6.45;;;16.40;80.60;;;;;;5094177;28;20035;-78
2023/06/06 01:27:22;;;;;;;9.13;5.85;;;16.30;80.50;;;;;;5094410;28;20044;-78
2023/06/06 01:29:49;;;;;;;8.77;5.75;;;16.20;81.00;;;;;;5094440;28;20028;-77
2023/06/06 01:32:36;;;;;;;11.02;6.68;;;16.10;81.40;;;;;;5094438;28;20089;-77
2023/06/06 01:35:17;;;;;;;15.30;7.20;;;16.10;81.30;;;;;;5094112;28;20124;-77
2023/06/06 01:38:05;;;;;;;10.48;6.50;;;15.90;82.40;;;;;;5094373;28;20032;-77
2023/06/06 01:40:32;;;;;;;10.50;6.55;;;15.80;82.20;;;;;;5093170;28;20043;-77
2023/06/06 01:43:00;;;;;;;6.93;5.60;;;15.80;82.30;;;;;;5094283;28;20048;-77
2023/06/06 01:45:30;;;;;;;9.38;6.30;;;15.90;82.50;;;;;;5094205;28;20032;-77
2023/06/06 01:47:57;;;;;;;10.13;6.35;;;16.00;82.10;;;;;;5094015;28;20036;-77
2023/06/06 01:50:22;;;;;;;8.57;6.13;;;15.90;81.90;;;;;;5094204;28;20056;-77
2023/06/06 01:52:48;;;;;;;7.60;5.45;;;15.90;82.10;;;;;;5094400;28;20028;-78
2023/06/06 01:55:14;;;;;;;8.98;5.53;;;15.80;82.00;;;;;;5093560;28;20067;-77
2023/06/06 01:57:39;;;;;;;7.47;5.40;;;16.00;82.10;;;;;;5093722;28;20059;-77
2023/06/06 02:00:08;;;;;;;10.25;6.28;;;15.80;82.00;;;;;;5093898;28;20028;-77
2023/06/06 02:02:34;;;;;;;9.00;5.90;;;15.90;82.10;;;;;;5093974;28;20376;-77
2023/06/06 02:05:00;;;;;;;10.80;6.05;;;15.90;82.00;;;;;;5093864;28;20024;-77
2023/06/06 02:07:26;;;;;;;8.02;5.47;;;16.00;81.80;;;;;;5093751;28;20058;-78
2023/06/06 02:09:52;;;;;;;9.00;5.85;;;15.90;81.90;;;;;;5093586;28;20028;-78
2023/06/06 02:12:18;;;;;;;11.32;6.13;;;15.90;81.90;;;;;;5093936;28;20035;-78
2023/06/06 02:14:43;;;;;;;10.98;6.25;;;15.90;81.80;;;;;;5093696;28;20024;-77
2023/06/06 02:17:09;;;;;;;8.25;6.07;;;15.90;82.00;;;;;;5093545;28;20114;-77
2023/06/06 02:19:35;;;;;;;11.07;6.40;;;15.80;82.10;;;;;;5093674;28;20028;-77
2023/06/06 02:22:01;;;;;;;9.18;6.38;;;15.80;82.30;;;;;;5093753;28;20025;-77
2023/06/06 02:24:27;;;;;;;7.32;4.90;;;15.70;82.50;;;;;;5093475;28;20100;-77
2023/06/06 02:26:53;;;;;;;10.48;6.35;;;15.80;82.50;;;;;;5093595;28;20381;-77
2023/06/06 02:29:25;;;;;;;9.73;5.90;;;15.90;82.10;;;;;;5093435;28;20028;-77
2023/06/06 02:31:53;;;;;;;13.98;7.03;;;15.90;82.10;;;;;;5093354;28;20456;-77
2023/06/06 02:34:19;;;;;;;8.65;5.75;;;15.90;82.00;;;;;;5093657;28;20033;-77
2023/06/06 02:36:44;;;;;;;8.27;4.97;;;15.90;82.20;;;;;;5093549;28;20034;-77
2023/06/06 02:39:11;;;;;;;8.98;5.80;;;15.90;82.20;;;;;;5093498;28;20465;-77
2023/06/06 02:41:36;;;;;;;8.43;5.53;;;15.80;82.30;;;;;;5093138;28;20384;-77
2023/06/06 02:44:03;;;;;;;11.02;6.20;;;15.80;82.60;;;;;;5093623;28;20036;-77
2023/06/06 02:46:30;;;;;;;8.27;5.80;;;15.70;82.70;;;;;;5093084;28;20480;-77
2023/06/06 02:48:56;;;;;;;12.95;6.47;;;15.70;82.80;;;;;;5095932;28;20444;-77
2023/06/06 02:51:23;;;;;;;9.18;5.68;;;15.80;82.50;;;;;;5097504;28;20058;-77
2023/06/06 02:53:49;;;;;;;7.13;5.50;;;15.90;82.20;;;;;;5098015;28;20375;-77
2023/06/06 02:56:16;;;;;;;8.90;6.15;;;16.00;81.90;;;;;;5097195;28;20036;-77
2023/06/06 02:58:42;;;;;;;9.63;5.57;;;16.10;81.60;;;;;;5097389;28;20054;-77
2023/06/06 03:01:09;;;;;;;11.13;6.43;;;16.20;81.60;;;;;;5097215;28;20024;-77
2023/06/06 03:03:35;;;;;;;8.75;5.40;;;16.30;81.30;;;;;;5079516;28;20075;-77
2023/06/06 03:06:01;;;;;;;9.45;7.03;;;16.30;81.30;;;;;;5097200;28;20052;-77
2023/06/06 03:08:27;;;;;;;9.55;6.82;;;16.30;81.00;;;;;;5096823;28;20107;-77
2023/06/06 03:10:53;;;;;;;11.02;7.03;;;16.30;81.00;;;;;;5097193;28;20085;-77
2023/06/06 03:13:19;;;;;;;9.00;6.03;;;16.20;81.20;;;;;;5097042;28;20032;-77
2023/06/06 03:15:45;;;;;;;8.32;5.75;;;16.10;81.40;;;;;;5096793;28;20050;-77
2023/06/06 03:18:20;;;;;;;11.52;7.18;;;16.20;81.30;;;;;;5078932;28;20405;-77
2023/06/06 03:20:51;;;;;;;11.05;7.03;;;16.20;81.30;;;;;;5097030;28;20035;-77
2023/06/06 03:23:17;;;;;;;10.52;6.47;;;16.00;81.50;;;;;;5097132;28;20036;-77
2023/06/06 03:25:44;;;;;;;10.00;6.22;;;16.10;81.70;;;;;;5096377;28;20114;-77
2023/06/06 03:28:10;;;;;;;9.85;6.82;;;16.10;81.60;;;;;;5096850;28;20043;-77
2023/06/06 03:30:36;;;;;;;10.23;5.85;;;16.10;81.60;;;;;;5096851;28;20142;-77
2023/06/06 03:33:03;;;;;;;8.02;5.80;;;16.00;81.90;;;;;;5096696;28;20107;-77
2023/06/06 03:35:32;;;;;;;7.85;5.57;;;16.00;82.10;;;;;;5096455;28;20024;-77
2023/06/06 03:37:58;;;;;;;10.98;6.47;;;16.00;82.50;;;;;;5078812;28;20043;-77
2023/06/06 03:40:24;;;;;;;7.30;5.05;;;16.00;82.00;;;;;;5096610;28;20028;-77
2023/06/06 03:42:50;;;;;;;8.32;5.78;;;16.00;81.90;;;;;;5096329;28;20028;-77
2023/06/06 03:45:20;;;;;;;7.93;5.43;;;16.10;81.90;;;;;;5096166;28;20032;-77
2023/06/06 03:47:46;;;;;;;9.15;5.60;;;16.10;82.30;;;;;;5096204;28;20119;-77
2023/06/06 03:50:12;;;;;;;9.70;6.22;;;16.10;82.30;;;;;;5096450;28;20445;-77
2023/06/06 03:52:40;;;;;;;9.38;5.70;;;16.00;82.30;;;;;;5096368;28;20059;-77
2023/06/06 03:55:07;;;;;;;8.40;5.80;;;15.90;82.90;;;;;;5095883;28;20454;-77
2023/06/06 03:57:33;;;;;;;11.55;6.43;;;15.90;82.90;;;;;;5096086;28;20036;-77
2023/06/06 04:00:00;;;;;;;10.90;6.68;;;15.80;82.90;;;;;;5094793;28;20020;-77
2023/06/06 04:02:27;;;;;;;13.43;6.82;;;15.70;83.20;;;;;;5095867;28;20378;-77
2023/06/06 04:04:54;;;;;;;10.13;6.10;;;15.60;83.50;;;;;;5078461;28;20032;-77
2023/06/06 04:07:20;;;;;;;8.77;5.72;;;15.60;83.60;;;;;;5096075;28;20036;-77
2023/06/06 04:09:45;;;;;;;11.57;7.15;;;15.60;83.70;;;;;;5095406;28;20442;-77
2023/06/06 04:12:11;;;;;;;9.73;6.72;;;15.50;83.80;;;;;;5096033;28;20032;-77
2023/06/06 04:14:37;;;;;;;10.02;6.28;;;15.40;84.30;;;;;;5095997;28;20028;-77
2023/06/06 04:17:03;;;;;;;11.75;6.90;;;15.40;84.80;;;;;;5094495;28;20040;-78
2023/06/06 04:19:30;;;;;;;8.77;5.75;;;15.30;84.90;;;;;;5095629;28;20028;-77
2023/06/06 04:21:55;;;;;;;10.10;6.35;;;15.20;85.30;;;;;;5095542;28;20388;-78
2023/06/06 04:24:21;;;;;;;11.52;6.00;;;15.30;85.30;;;;;;5095540;28;20024;-79
2023/06/06 04:26:48;;;;;;;10.90;6.50;;;15.30;85.10;;;;;;5095357;28;20384;-77
2023/06/06 04:29:14;;;;;;;8.90;6.75;;;15.40;85.20;;;;;;5095559;28;20115;-78
2023/06/06 04:31:44;;;;;;;14.18;5.97;;;15.50;85.10;;;;;;5095521;28;20036;-80
2023/06/06 04:34:10;;;;;;;15.73;5.80;;;15.50;85.30;;;;;;5095855;28;20086;-79
2023/06/06 04:36:40;;;;;;;21.85;7.72;;;15.60;85.60;;;;;;5095469;28;20036;-77
2023/06/06 04:39:07;;;;;;;13.52;7.15;;;15.80;85.30;;;;;;5095413;28;20055;-78
2023/06/06 04:41:34;;;;;;;19.50;7.20;;;15.90;84.40;;;;;;5095292;28;20031;-80
2023/06/06 04:44:02;;;;;;;22.63;7.20;;;15.90;84.50;;;;;;5095335;28;20028;-78
2023/06/06 04:46:29;;;;;;;11.88;6.30;;;15.90;84.50;;;;;;5094710;28;20446;-78
2023/06/06 04:48:56;;;;;;;13.45;6.90;;;16.10;84.00;;;;;;5094199;28;20138;-78
2023/06/06 04:51:30;;;;;;;9.02;5.88;;;16.10;83.80;;;;;;5095178;28;20035;-76
2023/06/06 04:54:06;;;;;;;10.93;6.35;;;16.10;83.40;;;;;;5095262;28;20024;-79
2023/06/06 04:56:32;;;;;;;9.48;6.05;;;16.10;83.40;;;;;;5095110;28;20483;-77
2023/06/06 04:59:05;;;;;;;9.60;5.88;;;16.10;83.80;;;;;;5095418;28;20111;-79
2023/06/06 05:01:41;;;;;;;10.25;5.97;;;16.00;83.50;;;;;;5093726;28;20024;-77
2023/06/06 05:04:07;;;;;;;12.82;6.20;;;16.00;83.80;;;;;;5094959;28;20024;-77
2023/06/06 05:06:34;;;;;;;10.13;6.25;;;16.00;83.80;;;;;;5094633;28;20039;-77
2023/06/06 05:09:03;;;;;;;14.20;6.55;;;16.00;83.60;;;;;;5060012;28;20479;-77
2023/06/06 05:11:30;;;;;;;10.25;5.97;;;15.80;84.10;;;;;;5093950;28;20093;-76
2023/06/06 05:13:55;;;;;;;10.20;6.00;;;15.60;84.90;;;;;;5076806;28;20074;-77
2023/06/06 05:16:21;;;;;;;12.10;6.95;;;15.60;85.10;;;;;;5093312;28;20491;-77
2023/06/06 05:18:47;;;;;;;12.05;6.80;;;15.50;85.90;;;;;;5094477;28;20058;-79
2023/06/06 05:21:14;;;;;;;10.30;6.45;;;15.50;85.70;;;;;;5094562;28;20059;-76
2023/06/06 05:23:40;;;;;;;11.45;6.30;;;15.50;85.70;;;;;;5076498;28;20028;-78
2023/06/06 05:26:05;;;;;;;11.23;6.22;;;15.50;85.80;;;;;;5075830;28;20024;-79
2023/06/06 05:28:31;;;;;;;9.30;5.57;;;15.70;85.30;;;;;;5094435;28;20032;-78
2023/06/06 05:30:57;;;;;;;11.45;5.85;;;15.70;85.30;;;;;;5092916;28;20032;-79
2023/06/06 05:33:30;;;;;;;10.60;7.05;;;15.70;85.50;;;;;;5075881;28;20032;-75
2023/06/06 05:35:56;;;;;;;10.73;6.50;;;15.60;85.10;;;;;;5094287;28;20016;-76
2023/06/06 05:38:22;;;;;;;13.15;6.60;;;15.50;85.80;;;;;;5094131;28;20035;-76
2023/06/06 05:40:48;;;;;;;10.48;6.18;;;15.50;86.20;;;;;;5093993;28;20506;-76
2023/06/06 05:43:14;;;;;;;8.18;5.70;;;15.50;86.20;;;;;;5093975;28;20024;-78
2023/06/06 05:45:40;;;;;;;9.13;5.43;;;15.70;85.70;;;;;;5093852;28;20399;-77
2023/06/06 05:48:06;;;;;;;10.45;5.57;;;15.80;85.50;;;;;;5092534;28;20028;-79
2023/06/06 05:50:32;;;;;;;10.15;6.13;;;15.90;85.30;;;;;;5094056;28;20132;-77
2023/06/06 05:52:58;;;;;;;8.75;5.05;;;15.90;85.30;;;;;;5075410;28;20472;-76
2023/06/06 05:55:32;;;;;;;11.60;6.20;;;15.90;85.20;;;;;;5093581;28;20441;-79
2023/06/06 05:57:58;;;;;;;11.48;5.63;;;16.10;84.80;;;;;;5092504;28;20024;-80
2023/06/06 06:00:29;;;;;;;12.45;5.68;;;16.10;84.50;;;;;;5093885;28;20028;-79
2023/06/06 06:02:56;;;;;;;9.73;5.25;;;16.10;84.60;;;;;;5093902;28;20395;-78
2023/06/06 06:05:27;;;;;;;14.20;6.15;;;16.00;84.60;;;;;;5092567;28;20619;-79
2023/06/06 06:08:02;;;;;;;11.55;6.07;;;16.00;84.40;;;;;;5094067;28;20048;-78
2023/06/06 06:10:33;;;;;;;8.45;4.85;;;16.20;84.50;;;;;;5077075;28;20031;-79
2023/06/06 06:13:00;;;;;;;11.25;6.18;;;16.40;84.30;;;;;;5093823;28;20114;-77
2023/06/06 06:15:26;;;;;;;9.70;5.03;;;16.50;83.20;;;;;;5093527;28;20060;-78
2023/06/06 06:17:52;;;;;;;14.32;5.63;;;16.40;83.40;;;;;;5092360;28;20043;-79
2023/06/06 06:20:19;;;;;;;12.68;5.97;;;16.60;83.20;;;;;;5075783;28;20084;-80
2023/06/06 06:22:46;;;;;;;12.98;6.07;;;16.60;83.10;;;;;;5092874;28;20035;-76
2023/06/06 06:25:16;;;;;;;6.90;4.93;;;16.60;82.80;;;;;;5074805;28;20028;-77
2023/06/06 06:27:44;;;;;;;12.32;5.68;;;16.60;82.80;;;;;;5076034;28;20036;-77
2023/06/06 06:30:11;;;;;;;10.73;6.10;;;16.60;82.70;;;;;;5093860;28;20111;-78
2023/06/06 06:32:38;;;;;;;9.05;5.40;;;16.50;82.60;;;;;;5093540;28;20460;-80
2023/06/06 06:35:05;;;;;;;8.35;4.72;;;16.50;82.80;;;;;;5093353;28;20020;-79
2023/06/06 06:37:31;;;;;;;10.50;4.72;;;16.70;82.80;;;;;;5091854;28;20384;-77
2023/06/06 06:39:58;;;;;;;7.22;4.80;;;16.90;82.50;;;;;;5093369;28;20036;-78
2023/06/06 06:42:24;;;;;;;13.65;5.47;;;17.20;82.00;;;;;;5093362;28;20024;-77
2023/06/06 06:44:50;;;;;;;10.10;5.63;;;17.30;81.30;;;;;;5092117;28;20375;-77
2023/06/06 06:47:17;;;;;;;8.00;5.65;;;17.40;80.30;;;;;;5093444;28;20042;-78
2023/06/06 06:49:42;;;;;;;9.68;5.68;;;17.30;80.40;;;;;;5091197;28;20152;-78
2023/06/06 06:52:12;;;;;;;11.43;4.65;;;17.30;80.80;;;;;;5093391;28;20060;-78
2023/06/06 06:54:52;;;;;;;11.98;4.63;;;17.30;81.00;;;;;;5075382;28;20025;-78
2023/06/06 06:57:19;;;;;;;9.40;4.72;;;17.50;81.00;;;;;;5093268;28;20036;-78
2023/06/06 06:59:46;;;;;;;8.55;5.05;;;17.50;80.10;;;;;;5092884;28;20036;-77
2023/06/06 07:02:11;;;;;;;12.32;5.55;;;17.60;80.10;;;;;;5091874;28;20029;-77
2023/06/06 07:04:39;;;;;;;11.85;5.60;;;17.60;80.10;;;;;;5092833;28;20112;-77
2023/06/06 07:07:06;;;;;;;6.85;3.60;;;17.80;79.90;;;;;;5091769;28;20115;-78
2023/06/06 07:09:31;;;;;;;10.02;4.72;;;17.90;80.10;;;;;;5093004;28;20106;-77
2023/06/06 07:11:57;;;;;;;8.27;4.15;;;18.10;80.10;;;;;;5093288;28;20445;-78
2023/06/06 07:14:22;;;;;;;11.18;3.83;;;18.20;79.80;;;;;;5074963;28;20043;-78
2023/06/06 07:16:48;;;;;;;7.93;5.07;;;18.40;79.80;;;;;;5074834;28;20028;-77
2023/06/06 07:19:14;;;;;;;11.32;4.82;;;18.40;78.60;;;;;;5093040;28;20066;-78
2023/06/06 07:21:39;;;;;;;9.10;4.68;;;18.20;78.90;;;;;;5093051;28;20047;-78
2023/06/06 07:24:05;;;;;;;10.68;4.70;;;18.30;79.90;;;;;;5075070;28;20035;-78
2023/06/06 07:26:31;;;;;;;8.27;4.72;;;18.40;79.40;;;;;;5092680;28;20032;-79
2023/06/06 07:28:57;;;;;;;8.18;3.90;;;18.50;79.40;;;;;;5093407;28;20495;-78
2023/06/06 07:31:22;;;;;;;8.73;4.60;;;18.50;79.10;;;;;;5074268;28;20124;-78
2023/06/06 07:33:48;;;;;;;7.50;4.47;;;18.70;79.20;;;;;;5092786;28;20024;-79
2023/06/06 07:36:14;;;;;;;8.68;4.35;;;18.80;78.40;;;;;;5096507;28;20032;-77
2023/06/06 07:38:39;;;;;;;7.25;4.75;;;18.90;77.70;;;;;;5078560;28;20039;-77
2023/06/06 07:41:05;;;;;;;10.13;4.30;;;18.90;77.90;;;;;;5095292;28;20467;-79
2023/06/06 07:43:31;;;;;;;11.32;5.30;;;18.90;77.70;;;;;;5096235;28;20056;-76
2023/06/06 07:45:57;;;;;;;9.77;4.20;;;19.00;77.50;;;;;;5095948;28;20024;-78
2023/06/06 07:48:22;;;;;;;8.60;4.35;;;18.90;77.70;;;;;;5078146;28;20048;-78
2023/06/06 07:50:48;;;;;;;7.35;4.07;;;19.10;78.10;;;;;;5096322;28;20037;-77
2023/06/06 07:53:13;;;;;;;10.02;5.28;;;19.30;77.80;;;;;;5096115;28;20058;-77
2023/06/06 07:55:40;;;;;;;9.95;5.15;;;19.30;76.40;;;;;;5095942;28;20373;-77
2023/06/06 07:58:10;;;;;;;8.65;4.40;;;19.10;77.10;;;;;;5096318;28;20115;-79
2023/06/06 08:00:44;;;;;;;8.68;5.50;;;19.10;77.50;;;;;;5096043;28;20035;-77
2023/06/06 08:03:11;;;;;;;9.70;4.60;;;19.20;77.50;;;;;;5096153;28;20021;-77
2023/06/06 08:05:38;;;;;;;8.85;4.63;;;19.20;77.60;;;;;;5096038;28;20284;-78
2023/06/06 08:08:06;;;;;;;10.75;4.80;;;19.30;77.20;;;;;;5095945;28;20028;-77
2023/06/06 08:10:32;;;;;;;10.20;4.55;;;19.40;77.90;;;;;;5078008;28;20123;-79
2023/06/06 08:13:00;;;;;;;8.43;4.65;;;19.40;77.30;;;;;;5095790;28;20487;-77
2023/06/06 08:15:25;;;;;;;10.05;4.40;;;19.60;77.20;;;;;;5095806;28;20020;-77
2023/06/06 08:17:51;;;;;;;6.43;4.40;;;19.70;77.60;;;;;;5077733;28;20050;-78
2023/06/06 08:20:17;;;;;;;6.13;4.38;;;19.90;77.00;;;;;;5077634;28;20032;-78
2023/06/06 08:22:50;;;;;;;12.73;4.80;;;20.00;76.10;;;;;;5077640;28;20032;-77
2023/06/06 08:25:16;;;;;;;8.55;4.10;;;20.10;76.50;;;;;;5094955;28;20036;-75
2023/06/06 08:27:42;;;;;;;9.02;4.38;;;20.10;75.50;;;;;;5095384;28;20043;-77
2023/06/06 08:30:08;;;;;;;7.43;4.63;;;20.20;75.60;;;;;;5077776;28;20028;-76
2023/06/06 08:32:34;;;;;;;9.18;4.47;;;20.30;75.20;;;;;;5076998;28;20048;-78
2023/06/06 08:35:03;;;;;;;7.10;3.70;;;20.40;75.30;;;;;;5095503;28;20054;-78
2023/06/06 08:37:30;;;;;;;9.60;5.20;;;20.40;75.50;;;;;;5095432;28;20461;-78
2023/06/06 08:39:55;;;;;;;8.65;4.88;;;20.60;74.80;;;;;;5095190;28;20024;-78
2023/06/06 08:42:22;;;;;;;6.75;3.58;;;20.60;75.20;;;;;;5077341;28;20119;-78
2023/06/06 08:44:50;;;;;;;10.13;4.07;;;20.80;74.80;;;;;;5093567;28;20039;-79
2023/06/06 08:47:17;;;;;;;8.07;4.00;;;21.00;73.70;;;;;;5094570;28;20054;-79
2023/06/06 08:49:43;;;;;;;10.15;4.28;;;21.10;74.30;;;;;;5095054;28;20044;-78
2023/06/06 08:52:09;;;;;;;7.90;3.90;;;21.10;74.00;;;;;;5095131;28;20349;-77
2023/06/06 08:54:37;;;;;;;8.90;4.55;;;21.30;73.90;;;;;;5094670;28;20524;-78
2023/06/06 08:57:07;;;;;;;11.15;4.90;;;21.30;72.70;;;;;;5095119;28;20035;-78
2023/06/06 08:59:39;;;;;;;7.40;4.03;;;21.10;73.10;;;;;;5095071;28;20050;-77
2023/06/06 09:02:08;;;;;;;8.63;4.68;;;21.10;73.10;;;;;;5094811;28;20031;-79
2023/06/06 09:04:35;;;;;;;6.65;4.10;;;21.30;73.50;;;;;;5093637;28;20036;-77
2023/06/06 09:07:11;;;;;;;8.32;4.03;;;21.40;73.80;;;;;;5094989;28;20035;-79
2023/06/06 09:09:42;;;;;;;11.00;4.60;;;21.50;73.90;;;;;;5094882;28;20024;-78
2023/06/06 09:12:09;;;;;;;11.27;5.03;;;21.70;72.50;;;;;;5094959;28;20024;-79
2023/06/06 09:14:35;;;;;;;9.85;4.00;;;21.90;72.90;;;;;;5094372;28;20028;-77
2023/06/06 09:17:01;;;;;;;8.23;4.10;;;22.00;72.10;;;;;;5076384;28;20496;-78
2023/06/06 09:19:27;;;;;;;7.47;3.42;;;22.10;72.40;;;;;;5094281;28;20392;-79
2023/06/06 09:21:57;;;;;;;7.65;3.85;;;22.20;71.90;;;;;;5094558;28;20028;-77
2023/06/06 09:24:22;;;;;;;7.47;3.47;;;22.40;71.00;;;;;;5094086;28;20600;-80
2023/06/06 09:26:48;;;;;;;10.32;4.20;;;22.40;71.40;;;;;;5094388;28;20062;-77
2023/06/06 09:29:13;;;;;;;7.03;3.55;;;22.50;70.20;;;;;;5076082;28;20063;-80
2023/06/06 09:31:40;;;;;;;8.45;4.05;;;22.50;70.50;;;;;;5092765;28;20035;-80
2023/06/06 09:34:10;;;;;;;6.93;4.05;;;22.60;69.90;;;;;;5094487;28;20035;-78
2023/06/06 09:36:41;;;;;;;6.10;3.53;;;22.80;70.10;;;;;;5094277;28;20039;-80
2023/06/06 09:39:16;;;;;;;5.00;3.28;;;22.90;69.70;;;;;;5094324;28;20111;-79
2023/06/06 09:41:47;;;;;;;7.07;3.75;;;23.00;69.70;;;;;;5094053;28;20039;-78
2023/06/06 09:44:23;;;;;;;7.82;3.97;;;23.00;69.00;;;;;;5094262;28;20036;-77
2023/06/06 09:46:50;;;;;;;8.20;3.92;;;23.10;68.60;;;;;;5075875;28;20505;-79
2023/06/06 09:49:15;;;;;;;6.53;3.53;;;22.90;69.40;;;;;;5093651;28;20484;-79
2023/06/06 09:51:45;;;;;;;11.93;4.60;;;23.00;70.20;;;;;;5093955;28;20039;-77
2023/06/06 09:54:11;;;;;;;10.82;3.78;;;23.10;68.60;;;;;;5094145;28;20039;-78
2023/06/06 09:56:42;;;;;;;7.25;3.70;;;23.10;69.30;;;;;;5092179;28;20024;-81
2023/06/06 09:59:09;;;;;;;8.27;3.25;;;23.40;69.70;;;;;;5093905;28;20032;-80
2023/06/06 10:01:40;;;;;;;10.18;4.00;;;23.60;69.20;;;;;;5093724;28;20047;-80
2023/06/06 10:04:08;;;;;;;7.40;3.97;;;23.90;67.50;;;;;;5094135;28;20053;-80
2023/06/06 10:06:34;;;;;;;7.13;3.38;;;23.90;68.40;;;;;;5094014;28;20058;-80
2023/06/06 10:09:03;;;;;;;8.93;3.28;;;24.00;68.00;;;;;;5094002;28;20032;-80
2023/06/06 10:11:30;;;;;;;6.03;3.22;;;24.10;67.80;;;;;;5094270;28;20081;-79
2023/06/06 10:13:56;;;;;;;10.50;4.43;;;24.30;68.80;;;;;;5093962;28;20024;-78
2023/06/06 10:16:23;;;;;;;8.25;3.50;;;24.30;66.10;;;;;;5093345;28;20107;-78
2023/06/06 10:18:49;;;;;;;7.50;4.03;;;24.20;65.90;;;;;;5092398;28;20105;-80
2023/06/06 10:21:16;;;;;;;7.30;3.35;;;24.20;67.00;;;;;;5093847;28;20033;-78
2023/06/06 10:23:42;;;;;;;5.13;3.00;;;24.20;66.60;;;;;;5093717;28;20457;-80
2023/06/06 10:26:23;;;;;;;6.28;2.75;;;24.40;66.70;;;;;;5093224;28;20472;-80
2023/06/06 10:29:01;;;;;;;8.23;3.35;;;24.50;67.30;;;;;;5093668;28;20115;-81
2023/06/06 10:31:52;;;;;;;9.75;3.67;;;24.50;66.50;;;;;;5092231;28;20024;-79
2023/06/06 10:34:23;;;;;;;7.30;3.50;;;24.60;66.90;;;;;;5093667;28;20032;-80
2023/06/06 10:36:48;;;;;;;4.55;3.03;;;24.70;65.90;;;;;;5093245;28;20032;-80
2023/06/06 10:39:25;;;;;;;6.63;3.58;;;24.60;66.10;;;;;;5092730;28;20119;-81
2023/06/06 10:41:58;;;;;;;6.18;3.50;;;24.80;65.80;;;;;;5094021;28;20028;-78
2023/06/06 10:44:35;;;;;;;5.40;3.00;;;24.90;65.60;;;;;;5093709;28;20028;-79
2023/06/06 10:47:23;;;;;;;7.80;3.35;;;25.00;64.30;;;;;;5091908;28;20032;-80
2023/06/06 10:50:11;;;;;;;6.22;3.13;;;25.00;64.40;;;;;;5093825;28;20079;-78
2023/06/06 10:52:48;;;;;;;5.85;2.90;;;24.90;65.20;;;;;;5093372;28;20016;-81
2023/06/06 10:55:38;;;;;;;6.00;3.35;;;24.90;64.70;;;;;;5075059;28;20039;-81
2023/06/06 10:58:04;;;;;;;8.60;3.30;;;24.90;65.70;;;;;;5093795;28;20032;-80
2023/06/06 11:00:45;;;;;;;8.73;3.22;;;25.10;64.80;;;;;;5093542;28;20522;-78
2023/06/06 11:03:15;;;;;;;8.40;3.53;;;25.30;64.60;;;;;;5092042;28;20041;-80
2023/06/06 11:06:00;;;;;;;6.65;3.65;;;25.50;63.60;;;;;;5093134;28;20024;-80
2023/06/06 11:08:57;;;;;;;8.15;3.38;;;25.50;63.10;;;;;;5093908;28;20032;-81
2023/06/06 11:11:29;;;;;;;7.35;3.10;;;25.50;63.80;;;;;;5096083;28;20310;-78
2023/06/06 11:14:03;;;;;;;11.00;3.42;;;25.50;64.10;;;;;;5097688;28;20046;-80
2023/06/06 11:16:50;;;;;;;12.93;3.78;;;25.60;63.50;;;;;;5097365;28;20099;-79
2023/06/06 11:19:19;;;;;;;7.25;2.95;;;25.50;62.20;;;;;;5095793;28;20052;-81
2023/06/06 11:21:48;;;;;;;7.93;4.00;;;25.50;64.20;;;;;;5097041;28;20020;-80
2023/06/06 11:24:14;;;;;;;9.75;4.05;;;25.60;63.30;;;;;;5096828;28;20072;-79
2023/06/06 11:26:41;;;;;;;5.15;3.00;;;25.60;62.60;;;;;;5096781;28;20029;-80
2023/06/06 11:29:09;;;;;;;10.63;3.50;;;25.50;63.80;;;;;;5096728;28;20042;-77
2023/06/06 11:31:36;;;;;;;9.27;3.70;;;25.50;62.80;;;;;;5096873;28;20056;-77
2023/06/06 11:34:09;;;;;;;10.07;4.18;;;25.60;63.60;;;;;;5096625;28;20111;-78
2023/06/06 11:36:35;;;;;;;;;;;25.50;62.50;;;;;;5097105;28;20024;-80
2023/06/06 11:39:04;;;;;;;6.68;2.50;;;25.40;63.50;;;;;;5096377;28;19911;-81
2023/06/06 11:41:33;;;;;;;7.78;3.20;;;25.60;64.50;;;;;;5095047;28;20032;-81
2023/06/06 11:43:59;;;;;;;5.88;2.70;;;25.90;63.00;;;;;;5096689;28;20065;-81
2023/06/06 11:46:25;;;;;;;9.27;2.90;;;26.10;62.50;;;;;;5096393;28;20418;-81
2023/06/06 11:48:58;;;;;;;8.40;3.50;;;26.30;62.10;;;;;;5096187;28;20055;-81
2023/06/06 11:51:24;;;;;;;6.28;2.75;;;26.40;62.00;;;;;;5096435;28;20032;-78
2023/06/06 11:53:50;;;;;;;6.85;3.47;;;26.60;61.30;;;;;;5096057;28;20082;-80
2023/06/06 11:56:17;;;;;;;8.30;3.92;;;26.50;60.90;;;;;;5095909;28;20024;-79
2023/06/06 11:58:42;;;;;;;7.80;3.45;;;26.30;61.10;;;;;;5096277;28;20032;-80
2023/06/06 12:01:11;;;;;;;8.57;3.30;;;26.20;61.60;;;;;;5096242;28;20029;-80
2023/06/06 12:03:40;;;;;;;6.97;2.65;;;26.30;62.30;;;;;;5096136;28;20485;-81
2023/06/06 12:06:07;;;;;;;8.63;2.45;;;26.40;61.20;;;;;;5096058;28;20020;-80
2023/06/06 12:08:34;;;;;;;10.73;2.88;;;26.70;60.10;;;;;;5095994;28;20024;-81
2023/06/06 12:11:29;;;;;;;6.13;2.75;;;26.80;60.00;;;;;;5096213;28;20036;-77
2023/06/06 12:13:57;;;;;;;9.02;3.08;;;27.00;59.10;;;;;;5096129;28;20059;-79
2023/06/06 12:16:27;;;;;;;3.60;2.15;;;27.10;59.30;;;;;;5096004;28;20020;-80
2023/06/06 12:18:56;;;;;;;7.80;2.90;;;27.20;59.10;;;;;;5095515;28;20493;-79
2023/06/06 12:21:22;;;;;;;9.82;3.28;;;27.30;58.60;;;;;;5094214;28;20100;-81
2023/06/06 12:23:49;;;;;;;6.45;3.45;;;27.40;58.80;;;;;;5095877;28;20456;-80
2023/06/06 12:26:18;;;;;;;11.65;4.38;;;27.30;59.20;;;;;;5095190;28;20129;-80
2023/06/06 12:28:58;;;;;;;8.43;3.40;;;27.20;58.80;;;;;;5095898;28;20036;-81
2023/06/06 12:31:25;;;;;;;6.80;2.55;;;27.10;59.50;;;;;;5095695;28;20499;-80
2023/06/06 12:33:56;;;;;;;9.82;3.40;;;27.20;60.20;;;;;;5095930;28;20382;-78
2023/06/06 12:36:24;;;;;;;6.28;2.70;;;27.30;58.10;;;;;;5095707;28;20454;-81
2023/06/06 12:39:01;;;;;;;5.63;2.90;;;27.30;58.20;;;;;;5096054;28;20034;-78
2023/06/06 12:41:40;;;;;;;6.03;2.67;;;27.30;57.00;;;;;;5094166;28;20373;-78
2023/06/06 12:44:14;;;;;;;9.90;4.15;;;27.20;57.70;;;;;;5095849;28;20172;-80
2023/06/06 12:46:42;;;;;;;9.88;3.05;;;27.10;58.50;;;;;;5095660;28;20541;-81
2023/06/06 12:49:09;;;;;;;7.82;3.10;;;26.90;59.30;;;;;;5094937;28;20492;-80